sensor_id;sensor_type;location;lat;lon;timestamp;P1;durP1;ratioP1;P2;durP2;ratioP2
19566;SDS011;9930;49.240;8.548;2023-05-07T00:01:36;1.85;;;1.75;;
19566;SDS011;9930;49.240;8.548;2023-05-07T00:04:03;2.20;;;2.00;;
19566;SDS011;9930;49.240;8.548;2023-05-07T00:06:32;1.80;;;1.70;;
19566;SDS011;9930;49.240;8.548;2023-05-07T00:09:00;1.70;;;1.60;;
19566;SDS011;9930;49.240;8.548;2023-05-07T00:11:27;2.10;;;1.90;;
19566;SDS011;9930;49.240;8.548;2023-05-07T00:13:55;2.60;;;1.75;;
19566;SDS011;9930;49.240;8.548;2023-05-07T00:16:23;2.67;;;2.47;;
19566;SDS011;9930;49.240;8.548;2023-05-07T00:18:53;3.22;;;2.92;;
19566;SDS011;9930;49.240;8.548;2023-05-07T00:21:21;2.97;;;2.72;;
19566;SDS011;9930;49.240;8.548;2023-05-07T00:23:47;2.88;;;2.10;;
19566;SDS011;9930;49.240;8.548;2023-05-07T00:26:12;2.25;;;2.05;;
19566;SDS011;9930;49.240;8.548;2023-05-07T00:28:40;1.92;;;1.80;;
19566;SDS011;9930;49.240;8.548;2023-05-07T00:31:08;2.20;;;2.10;;
19566;SDS011;9930;49.240;8.548;2023-05-07T00:33:39;2.15;;;1.75;;
19566;SDS011;9930;49.240;8.548;2023-05-07T00:36:08;1.88;;;1.75;;
19566;SDS011;9930;49.240;8.548;2023-05-07T00:38:34;2.10;;;2.00;;
19566;SDS011;9930;49.240;8.548;2023-05-07T00:41:02;1.95;;;1.70;;
19566;SDS011;9930;49.240;8.548;2023-05-07T00:43:28;1.95;;;1.75;;
19566;SDS011;9930;49.240;8.548;2023-05-07T00:45:57;1.63;;;1.52;;
19566;SDS011;9930;49.240;8.548;2023-05-07T00:48:22;1.80;;;1.70;;
19566;SDS011;9930;49.240;8.548;2023-05-07T00:50:49;2.15;;;2.00;;
19566;SDS011;9930;49.240;8.548;2023-05-07T00:53:18;2.03;;;1.85;;
19566;SDS011;9930;49.240;8.548;2023-05-07T00:55:45;2.33;;;2.13;;
19566;SDS011;9930;49.240;8.548;2023-05-07T00:58:13;2.83;;;2.03;;
19566;SDS011;9930;49.240;8.548;2023-05-07T01:00:42;4.03;;;2.20;;
19566;SDS011;9930;49.240;8.548;2023-05-07T01:03:10;2.10;;;1.90;;
19566;SDS011;9930;49.240;8.548;2023-05-07T01:05:36;2.10;;;1.90;;
19566;SDS011;9930;49.240;8.548;2023-05-07T01:08:06;3.45;;;1.95;;
19566;SDS011;9930;49.240;8.548;2023-05-07T01:10:38;1.90;;;1.80;;
19566;SDS011;9930;49.240;8.548;2023-05-07T01:13:07;2.25;;;2.05;;
19566;SDS011;9930;49.240;8.548;2023-05-07T01:15:37;1.95;;;1.83;;
19566;SDS011;9930;49.240;8.548;2023-05-07T01:18:06;1.90;;;1.70;;
19566;SDS011;9930;49.240;8.548;2023-05-07T01:20:34;2.00;;;1.90;;
19566;SDS011;9930;49.240;8.548;2023-05-07T01:23:03;1.88;;;1.73;;
19566;SDS011;9930;49.240;8.548;2023-05-07T01:25:32;3.13;;;2.25;;
19566;SDS011;9930;49.240;8.548;2023-05-07T01:28:01;2.10;;;1.90;;
19566;SDS011;9930;49.240;8.548;2023-05-07T01:30:27;1.80;;;1.70;;
19566;SDS011;9930;49.240;8.548;2023-05-07T01:32:59;2.40;;;2.00;;
19566;SDS011;9930;49.240;8.548;2023-05-07T01:35:38;1.60;;;1.50;;
19566;SDS011;9930;49.240;8.548;2023-05-07T01:38:10;2.00;;;1.80;;
19566;SDS011;9930;49.240;8.548;2023-05-07T01:40:37;1.92;;;1.83;;
19566;SDS011;9930;49.240;8.548;2023-05-07T01:43:05;1.60;;;1.50;;
19566;SDS011;9930;49.240;8.548;2023-05-07T01:45:37;2.05;;;1.85;;
19566;SDS011;9930;49.240;8.548;2023-05-07T01:48:09;2.05;;;1.95;;
19566;SDS011;9930;49.240;8.548;2023-05-07T01:50:37;1.90;;;1.80;;
19566;SDS011;9930;49.240;8.548;2023-05-07T01:53:07;2.10;;;1.92;;
19566;SDS011;9930;49.240;8.548;2023-05-07T01:55:33;1.83;;;1.73;;
19566;SDS011;9930;49.240;8.548;2023-05-07T01:58:03;2.40;;;1.83;;
19566;SDS011;9930;49.240;8.548;2023-05-07T02:00:31;2.08;;;1.98;;
19566;SDS011;9930;49.240;8.548;2023-05-07T02:02:57;1.85;;;1.70;;
19566;SDS011;9930;49.240;8.548;2023-05-07T02:05:25;1.83;;;1.73;;
19566;SDS011;9930;49.240;8.548;2023-05-07T02:07:56;1.70;;;1.60;;
19566;SDS011;9930;49.240;8.548;2023-05-07T02:10:24;1.90;;;1.73;;
19566;SDS011;9930;49.240;8.548;2023-05-07T02:12:49;1.80;;;1.70;;
19566;SDS011;9930;49.240;8.548;2023-05-07T02:15:17;1.77;;;1.67;;
19566;SDS011;9930;49.240;8.548;2023-05-07T02:18:01;1.92;;;1.80;;
19566;SDS011;9930;49.240;8.548;2023-05-07T02:20:34;2.13;;;1.80;;
19566;SDS011;9930;49.240;8.548;2023-05-07T02:23:01;1.88;;;1.73;;
19566;SDS011;9930;49.240;8.548;2023-05-07T02:25:30;1.70;;;1.60;;
19566;SDS011;9930;49.240;8.548;2023-05-07T02:27:55;1.83;;;1.73;;
19566;SDS011;9930;49.240;8.548;2023-05-07T02:30:21;2.00;;;1.90;;
19566;SDS011;9930;49.240;8.548;2023-05-07T02:32:50;2.15;;;1.95;;
19566;SDS011;9930;49.240;8.548;2023-05-07T02:35:18;2.15;;;1.90;;
19566;SDS011;9930;49.240;8.548;2023-05-07T02:37:46;2.28;;;1.92;;
19566;SDS011;9930;49.240;8.548;2023-05-07T02:40:11;1.92;;;1.80;;
19566;SDS011;9930;49.240;8.548;2023-05-07T02:42:42;2.05;;;1.92;;
19566;SDS011;9930;49.240;8.548;2023-05-07T02:45:08;2.58;;;1.92;;
19566;SDS011;9930;49.240;8.548;2023-05-07T02:47:35;2.33;;;1.83;;
19566;SDS011;9930;49.240;8.548;2023-05-07T02:50:01;1.88;;;1.77;;
19566;SDS011;9930;49.240;8.548;2023-05-07T02:52:30;1.85;;;1.75;;
19566;SDS011;9930;49.240;8.548;2023-05-07T02:54:57;2.10;;;1.90;;
19566;SDS011;9930;49.240;8.548;2023-05-07T02:57:22;2.13;;;1.98;;
19566;SDS011;9930;49.240;8.548;2023-05-07T02:59:48;1.80;;;1.70;;
19566;SDS011;9930;49.240;8.548;2023-05-07T03:02:18;1.80;;;1.70;;
19566;SDS011;9930;49.240;8.548;2023-05-07T03:04:43;1.80;;;1.70;;
19566;SDS011;9930;49.240;8.548;2023-05-07T03:07:11;2.10;;;1.98;;
19566;SDS011;9930;49.240;8.548;2023-05-07T03:09:37;2.03;;;1.92;;
19566;SDS011;9930;49.240;8.548;2023-05-07T03:12:05;2.00;;;1.88;;
19566;SDS011;9930;49.240;8.548;2023-05-07T03:14:31;2.42;;;1.80;;
19566;SDS011;9930;49.240;8.548;2023-05-07T03:16:57;2.30;;;2.03;;
19566;SDS011;9930;49.240;8.548;2023-05-07T03:19:22;1.85;;;1.75;;
19566;SDS011;9930;49.240;8.548;2023-05-07T03:21:48;2.00;;;1.90;;
19566;SDS011;9930;49.240;8.548;2023-05-07T03:24:14;2.08;;;1.98;;
19566;SDS011;9930;49.240;8.548;2023-05-07T03:26:42;1.90;;;1.80;;
19566;SDS011;9930;49.240;8.548;2023-05-07T03:29:07;2.00;;;1.90;;
19566;SDS011;9930;49.240;8.548;2023-05-07T03:31:36;3.10;;;1.85;;
19566;SDS011;9930;49.240;8.548;2023-05-07T03:34:06;2.10;;;2.00;;
19566;SDS011;9930;49.240;8.548;2023-05-07T03:36:34;1.95;;;1.75;;
19566;SDS011;9930;49.240;8.548;2023-05-07T03:39:01;2.00;;;1.90;;
19566;SDS011;9930;49.240;8.548;2023-05-07T03:41:30;2.25;;;2.00;;
19566;SDS011;9930;49.240;8.548;2023-05-07T03:43:57;1.85;;;1.75;;
19566;SDS011;9930;49.240;8.548;2023-05-07T03:46:23;1.98;;;1.70;;
19566;SDS011;9930;49.240;8.548;2023-05-07T03:48:53;2.45;;;1.88;;
19566;SDS011;9930;49.240;8.548;2023-05-07T03:51:20;1.92;;;1.83;;
19566;SDS011;9930;49.240;8.548;2023-05-07T03:53:46;2.03;;;1.92;;
19566;SDS011;9930;49.240;8.548;2023-05-07T03:56:17;2.05;;;1.85;;
19566;SDS011;9930;49.240;8.548;2023-05-07T03:58:47;2.10;;;2.00;;
19566;SDS011;9930;49.240;8.548;2023-05-07T04:01:12;2.10;;;2.00;;
19566;SDS011;9930;49.240;8.548;2023-05-07T04:03:43;1.95;;;1.85;;
19566;SDS011;9930;49.240;8.548;2023-05-07T04:06:11;2.25;;;2.05;;
19566;SDS011;9930;49.240;8.548;2023-05-07T04:08:38;2.20;;;2.00;;
19566;SDS011;9930;49.240;8.548;2023-05-07T04:11:06;2.00;;;1.90;;
19566;SDS011;9930;49.240;8.548;2023-05-07T04:13:34;1.95;;;1.80;;
19566;SDS011;9930;49.240;8.548;2023-05-07T04:16:02;1.95;;;1.85;;
19566;SDS011;9930;49.240;8.548;2023-05-07T04:18:31;2.40;;;1.90;;
19566;SDS011;9930;49.240;8.548;2023-05-07T04:20:57;2.03;;;1.90;;
19566;SDS011;9930;49.240;8.548;2023-05-07T04:23:25;3.58;;;2.13;;
19566;SDS011;9930;49.240;8.548;2023-05-07T04:25:51;2.20;;;2.00;;
19566;SDS011;9930;49.240;8.548;2023-05-07T04:28:17;1.95;;;1.80;;
19566;SDS011;9930;49.240;8.548;2023-05-07T04:30:45;2.05;;;1.95;;
19566;SDS011;9930;49.240;8.548;2023-05-07T04:33:16;2.17;;;1.98;;
19566;SDS011;9930;49.240;8.548;2023-05-07T04:35:42;2.10;;;2.00;;
19566;SDS011;9930;49.240;8.548;2023-05-07T04:38:12;2.05;;;1.90;;
19566;SDS011;9930;49.240;8.548;2023-05-07T04:40:38;2.05;;;1.95;;
19566;SDS011;9930;49.240;8.548;2023-05-07T04:43:06;2.65;;;1.90;;
19566;SDS011;9930;49.240;8.548;2023-05-07T04:45:36;1.98;;;1.85;;
19566;SDS011;9930;49.240;8.548;2023-05-07T04:48:06;2.00;;;1.90;;
19566;SDS011;9930;49.240;8.548;2023-05-07T04:50:35;2.38;;;2.17;;
19566;SDS011;9930;49.240;8.548;2023-05-07T04:53:00;2.25;;;2.00;;
19566;SDS011;9930;49.240;8.548;2023-05-07T04:55:28;2.03;;;1.92;;
19566;SDS011;9930;49.240;8.548;2023-05-07T04:57:58;1.77;;;1.67;;
19566;SDS011;9930;49.240;8.548;2023-05-07T05:00:26;2.15;;;1.73;;
19566;SDS011;9930;49.240;8.548;2023-05-07T05:02:59;1.95;;;1.85;;
19566;SDS011;9930;49.240;8.548;2023-05-07T05:05:25;3.67;;;2.05;;
19566;SDS011;9930;49.240;8.548;2023-05-07T05:07:50;2.40;;;2.00;;
19566;SDS011;9930;49.240;8.548;2023-05-07T05:10:16;2.85;;;2.40;;
19566;SDS011;9930;49.240;8.548;2023-05-07T05:12:42;2.88;;;2.00;;
19566;SDS011;9930;49.240;8.548;2023-05-07T05:15:09;2.38;;;1.90;;
19566;SDS011;9930;49.240;8.548;2023-05-07T05:17:39;1.92;;;1.83;;
19566;SDS011;9930;49.240;8.548;2023-05-07T05:20:07;1.70;;;1.60;;
19566;SDS011;9930;49.240;8.548;2023-05-07T05:22:35;1.92;;;1.80;;
19566;SDS011;9930;49.240;8.548;2023-05-07T05:25:09;2.17;;;2.00;;
19566;SDS011;9930;49.240;8.548;2023-05-07T05:27:38;1.90;;;1.80;;
19566;SDS011;9930;49.240;8.548;2023-05-07T05:30:04;1.85;;;1.75;;
19566;SDS011;9930;49.240;8.548;2023-05-07T05:32:33;2.22;;;2.13;;
19566;SDS011;9930;49.240;8.548;2023-05-07T05:35:01;2.22;;;2.03;;
19566;SDS011;9930;49.240;8.548;2023-05-07T05:37:27;2.03;;;1.80;;
19566;SDS011;9930;49.240;8.548;2023-05-07T05:39:55;1.88;;;1.77;;
19566;SDS011;9930;49.240;8.548;2023-05-07T05:42:21;2.20;;;2.00;;
19566;SDS011;9930;49.240;8.548;2023-05-07T05:44:46;1.73;;;1.63;;
19566;SDS011;9930;49.240;8.548;2023-05-07T05:47:12;2.15;;;1.90;;
19566;SDS011;9930;49.240;8.548;2023-05-07T05:49:38;1.95;;;1.83;;
19566;SDS011;9930;49.240;8.548;2023-05-07T05:52:04;1.90;;;1.80;;
19566;SDS011;9930;49.240;8.548;2023-05-07T05:54:35;1.90;;;1.80;;
19566;SDS011;9930;49.240;8.548;2023-05-07T05:57:05;1.90;;;1.80;;
19566;SDS011;9930;49.240;8.548;2023-05-07T05:59:34;1.50;;;1.40;;
19566;SDS011;9930;49.240;8.548;2023-05-07T06:02:05;1.65;;;1.55;;
19566;SDS011;9930;49.240;8.548;2023-05-07T06:04:32;1.77;;;1.67;;
19566;SDS011;9930;49.240;8.548;2023-05-07T06:07:01;1.95;;;1.85;;
19566;SDS011;9930;49.240;8.548;2023-05-07T06:09:27;2.25;;;1.73;;
19566;SDS011;9930;49.240;8.548;2023-05-07T06:11:54;1.80;;;1.70;;
19566;SDS011;9930;49.240;8.548;2023-05-07T06:14:20;1.63;;;1.52;;
19566;SDS011;9930;49.240;8.548;2023-05-07T06:16:46;1.90;;;1.70;;
19566;SDS011;9930;49.240;8.548;2023-05-07T06:19:16;1.70;;;1.60;;
19566;SDS011;9930;49.240;8.548;2023-05-07T06:21:47;1.70;;;1.60;;
19566;SDS011;9930;49.240;8.548;2023-05-07T06:24:13;1.98;;;1.70;;
19566;SDS011;9930;49.240;8.548;2023-05-07T06:26:41;2.53;;;1.88;;
19566;SDS011;9930;49.240;8.548;2023-05-07T06:29:10;1.88;;;1.60;;
19566;SDS011;9930;49.240;8.548;2023-05-07T06:31:40;1.98;;;1.77;;
19566;SDS011;9930;49.240;8.548;2023-05-07T06:34:06;1.70;;;1.60;;
19566;SDS011;9930;49.240;8.548;2023-05-07T06:36:34;1.88;;;1.50;;
19566;SDS011;9930;49.240;8.548;2023-05-07T06:39:03;1.70;;;1.60;;
19566;SDS011;9930;49.240;8.548;2023-05-07T06:41:28;1.58;;;1.48;;
19566;SDS011;9930;49.240;8.548;2023-05-07T06:43:59;1.92;;;1.80;;
19566;SDS011;9930;49.240;8.548;2023-05-07T06:46:30;4.22;;;1.88;;
19566;SDS011;9930;49.240;8.548;2023-05-07T06:48:56;1.70;;;1.60;;
19566;SDS011;9930;49.240;8.548;2023-05-07T06:51:21;1.90;;;1.80;;
19566;SDS011;9930;49.240;8.548;2023-05-07T06:53:50;1.85;;;1.75;;
19566;SDS011;9930;49.240;8.548;2023-05-07T06:56:16;2.55;;;1.83;;
19566;SDS011;9930;49.240;8.548;2023-05-07T06:58:43;1.70;;;1.60;;
19566;SDS011;9930;49.240;8.548;2023-05-07T07:01:12;4.43;;;1.63;;
19566;SDS011;9930;49.240;8.548;2023-05-07T07:03:40;2.10;;;1.80;;
19566;SDS011;9930;49.240;8.548;2023-05-07T07:06:08;1.85;;;1.67;;
19566;SDS011;9930;49.240;8.548;2023-05-07T07:08:36;1.80;;;1.70;;
19566;SDS011;9930;49.240;8.548;2023-05-07T07:11:03;1.90;;;1.80;;
19566;SDS011;9930;49.240;8.548;2023-05-07T07:13:30;2.45;;;1.60;;
19566;SDS011;9930;49.240;8.548;2023-05-07T07:15:56;1.85;;;1.55;;
19566;SDS011;9930;49.240;8.548;2023-05-07T07:18:22;2.30;;;1.80;;
19566;SDS011;9930;49.240;8.548;2023-05-07T07:20:48;2.05;;;1.55;;
19566;SDS011;9930;49.240;8.548;2023-05-07T07:23:16;1.70;;;1.60;;
19566;SDS011;9930;49.240;8.548;2023-05-07T07:25:41;2.38;;;1.80;;
19566;SDS011;9930;49.240;8.548;2023-05-07T07:28:07;1.67;;;1.58;;
19566;SDS011;9930;49.240;8.548;2023-05-07T07:30:33;1.55;;;1.45;;
19566;SDS011;9930;49.240;8.548;2023-05-07T07:33:00;1.60;;;1.50;;
19566;SDS011;9930;49.240;8.548;2023-05-07T07:35:28;1.90;;;1.80;;
19566;SDS011;9930;49.240;8.548;2023-05-07T07:37:57;1.65;;;1.50;;
19566;SDS011;9930;49.240;8.548;2023-05-07T07:40:23;1.48;;;1.38;;
19566;SDS011;9930;49.240;8.548;2023-05-07T07:42:52;1.70;;;1.58;;
19566;SDS011;9930;49.240;8.548;2023-05-07T07:45:18;1.98;;;1.60;;
19566;SDS011;9930;49.240;8.548;2023-05-07T07:47:49;1.55;;;1.33;;
19566;SDS011;9930;49.240;8.548;2023-05-07T07:50:14;1.60;;;1.50;;
19566;SDS011;9930;49.240;8.548;2023-05-07T07:52:40;1.60;;;1.50;;
19566;SDS011;9930;49.240;8.548;2023-05-07T07:55:08;3.38;;;1.52;;
19566;SDS011;9930;49.240;8.548;2023-05-07T07:57:34;1.65;;;1.55;;
19566;SDS011;9930;49.240;8.548;2023-05-07T08:00:02;1.65;;;1.52;;
19566;SDS011;9930;49.240;8.548;2023-05-07T08:02:28;1.98;;;1.40;;
19566;SDS011;9930;49.240;8.548;2023-05-07T08:04:55;1.42;;;1.33;;
19566;SDS011;9930;49.240;8.548;2023-05-07T08:07:22;2.75;;;1.40;;
19566;SDS011;9930;49.240;8.548;2023-05-07T08:09:48;2.28;;;1.55;;
19566;SDS011;9930;49.240;8.548;2023-05-07T08:12:14;1.52;;;1.42;;
19566;SDS011;9930;49.240;8.548;2023-05-07T08:14:40;1.42;;;1.30;;
19566;SDS011;9930;49.240;8.548;2023-05-07T08:20:35;1.55;;;1.45;;
19566;SDS011;9930;49.240;8.548;2023-05-07T08:23:05;1.58;;;1.48;;
19566;SDS011;9930;49.240;8.548;2023-05-07T08:25:35;1.35;;;1.25;;
19566;SDS011;9930;49.240;8.548;2023-05-07T08:28:02;2.45;;;1.60;;
19566;SDS011;9930;49.240;8.548;2023-05-07T08:30:33;1.55;;;1.45;;
19566;SDS011;9930;49.240;8.548;2023-05-07T08:33:03;1.65;;;1.55;;
19566;SDS011;9930;49.240;8.548;2023-05-07T08:35:31;1.55;;;1.45;;
19566;SDS011;9930;49.240;8.548;2023-05-07T08:37:57;1.60;;;1.50;;
19566;SDS011;9930;49.240;8.548;2023-05-07T08:40:24;1.50;;;1.40;;
19566;SDS011;9930;49.240;8.548;2023-05-07T08:42:53;1.33;;;1.27;;
19566;SDS011;9930;49.240;8.548;2023-05-07T08:45:22;1.60;;;1.50;;
19566;SDS011;9930;49.240;8.548;2023-05-07T08:47:53;1.75;;;1.65;;
19566;SDS011;9930;49.240;8.548;2023-05-07T08:50:27;1.52;;;1.42;;
19566;SDS011;9930;49.240;8.548;2023-05-07T08:52:57;1.52;;;1.42;;
19566;SDS011;9930;49.240;8.548;2023-05-07T08:55:24;1.40;;;1.30;;
19566;SDS011;9930;49.240;8.548;2023-05-07T08:57:50;1.60;;;1.50;;
19566;SDS011;9930;49.240;8.548;2023-05-07T09:00:20;1.75;;;1.65;;
19566;SDS011;9930;49.240;8.548;2023-05-07T09:02:45;1.50;;;1.40;;
19566;SDS011;9930;49.240;8.548;2023-05-07T09:05:11;1.67;;;1.58;;
19566;SDS011;9930;49.240;8.548;2023-05-07T09:07:37;1.83;;;1.60;;
19566;SDS011;9930;49.240;8.548;2023-05-07T09:10:03;2.00;;;1.50;;
19566;SDS011;9930;49.240;8.548;2023-05-07T09:12:37;1.48;;;1.38;;
19566;SDS011;9930;49.240;8.548;2023-05-07T09:15:05;1.58;;;1.48;;
19566;SDS011;9930;49.240;8.548;2023-05-07T09:17:33;1.70;;;1.60;;
19566;SDS011;9930;49.240;8.548;2023-05-07T09:20:03;1.95;;;1.40;;
19566;SDS011;9930;49.240;8.548;2023-05-07T09:22:35;1.52;;;1.42;;
19566;SDS011;9930;49.240;8.548;2023-05-07T09:25:06;2.00;;;1.90;;
19566;SDS011;9930;49.240;8.548;2023-05-07T09:27:34;2.38;;;1.67;;
19566;SDS011;9930;49.240;8.548;2023-05-07T09:30:05;1.50;;;1.40;;
19566;SDS011;9930;49.240;8.548;2023-05-07T09:32:35;2.63;;;1.60;;
19566;SDS011;9930;49.240;8.548;2023-05-07T09:35:15;1.95;;;1.40;;
19566;SDS011;9930;49.240;8.548;2023-05-07T09:37:42;1.35;;;1.30;;
19566;SDS011;9930;49.240;8.548;2023-05-07T09:40:21;1.75;;;1.65;;
19566;SDS011;9930;49.240;8.548;2023-05-07T09:42:49;2.53;;;1.90;;
19566;SDS011;9930;49.240;8.548;2023-05-07T09:45:26;2.10;;;1.58;;
19566;SDS011;9930;49.240;8.548;2023-05-07T09:47:54;2.08;;;1.83;;
19566;SDS011;9930;49.240;8.548;2023-05-07T09:50:26;1.65;;;1.55;;
19566;SDS011;9930;49.240;8.548;2023-05-07T09:53:03;1.80;;;1.70;;
19566;SDS011;9930;49.240;8.548;2023-05-07T09:55:32;1.70;;;1.60;;
19566;SDS011;9930;49.240;8.548;2023-05-07T09:57:58;1.67;;;1.58;;
19566;SDS011;9930;49.240;8.548;2023-05-07T10:00:30;2.30;;;1.67;;
19566;SDS011;9930;49.240;8.548;2023-05-07T10:02:59;1.92;;;1.60;;
19566;SDS011;9930;49.240;8.548;2023-05-07T10:05:28;1.50;;;1.40;;
19566;SDS011;9930;49.240;8.548;2023-05-07T10:07:54;1.38;;;1.30;;
19566;SDS011;9930;49.240;8.548;2023-05-07T10:10:24;1.65;;;1.55;;
19566;SDS011;9930;49.240;8.548;2023-05-07T10:12:51;1.58;;;1.40;;
19566;SDS011;9930;49.240;8.548;2023-05-07T10:15:25;1.60;;;1.50;;
19566;SDS011;9930;49.240;8.548;2023-05-07T10:17:51;1.60;;;1.50;;
19566;SDS011;9930;49.240;8.548;2023-05-07T10:20:22;2.20;;;1.63;;
19566;SDS011;9930;49.240;8.548;2023-05-07T10:22:49;1.55;;;1.50;;
19566;SDS011;9930;49.240;8.548;2023-05-07T10:25:25;1.67;;;1.58;;
19566;SDS011;9930;49.240;8.548;2023-05-07T10:27:57;1.33;;;1.30;;
19566;SDS011;9930;49.240;8.548;2023-05-07T10:33:36;2.42;;;1.77;;
19566;SDS011;9930;49.240;8.548;2023-05-07T10:36:04;2.42;;;1.65;;
19566;SDS011;9930;49.240;8.548;2023-05-07T10:38:35;1.75;;;1.50;;
19566;SDS011;9930;49.240;8.548;2023-05-07T10:41:07;1.63;;;1.52;;
19566;SDS011;9930;49.240;8.548;2023-05-07T10:43:40;1.67;;;1.58;;
19566;SDS011;9930;49.240;8.548;2023-05-07T10:46:14;1.83;;;1.60;;
19566;SDS011;9930;49.240;8.548;2023-05-07T10:51:36;1.95;;;1.85;;
19566;SDS011;9930;49.240;8.548;2023-05-07T10:56:37;1.88;;;1.77;;
19566;SDS011;9930;49.240;8.548;2023-05-07T11:04:32;1.92;;;1.77;;
19566;SDS011;9930;49.240;8.548;2023-05-07T11:15:09;1.45;;;1.35;;
19566;SDS011;9930;49.240;8.548;2023-05-07T11:17:58;1.70;;;1.60;;
19566;SDS011;9930;49.240;8.548;2023-05-07T11:20:44;1.80;;;1.65;;
19566;SDS011;9930;49.240;8.548;2023-05-07T11:26:08;2.20;;;1.88;;
19566;SDS011;9930;49.240;8.548;2023-05-07T11:28:45;1.90;;;1.75;;
19566;SDS011;9930;49.240;8.548;2023-05-07T11:31:13;2.08;;;1.80;;
19566;SDS011;9930;49.240;8.548;2023-05-07T11:33:47;1.60;;;1.50;;
19566;SDS011;9930;49.240;8.548;2023-05-07T11:36:13;1.67;;;1.58;;
19566;SDS011;9930;49.240;8.548;2023-05-07T11:38:41;1.70;;;1.60;;
19566;SDS011;9930;49.240;8.548;2023-05-07T11:41:07;1.67;;;1.58;;
19566;SDS011;9930;49.240;8.548;2023-05-07T11:43:40;1.70;;;1.60;;
19566;SDS011;9930;49.240;8.548;2023-05-07T11:46:27;1.80;;;1.70;;
19566;SDS011;9930;49.240;8.548;2023-05-07T11:48:56;1.60;;;1.50;;
19566;SDS011;9930;49.240;8.548;2023-05-07T11:51:25;1.98;;;1.88;;
19566;SDS011;9930;49.240;8.548;2023-05-07T11:53:54;1.63;;;1.52;;
19566;SDS011;9930;49.240;8.548;2023-05-07T11:56:19;1.98;;;1.83;;
19566;SDS011;9930;49.240;8.548;2023-05-07T11:58:48;1.63;;;1.50;;
19566;SDS011;9930;49.240;8.548;2023-05-07T12:01:17;1.52;;;1.42;;
19566;SDS011;9930;49.240;8.548;2023-05-07T12:03:43;1.50;;;1.40;;
19566;SDS011;9930;49.240;8.548;2023-05-07T12:06:13;1.58;;;1.48;;
19566;SDS011;9930;49.240;8.548;2023-05-07T12:08:41;1.60;;;1.50;;
19566;SDS011;9930;49.240;8.548;2023-05-07T12:11:09;2.22;;;1.60;;
19566;SDS011;9930;49.240;8.548;2023-05-07T12:13:43;1.55;;;1.45;;
19566;SDS011;9930;49.240;8.548;2023-05-07T12:16:09;1.75;;;1.63;;
19566;SDS011;9930;49.240;8.548;2023-05-07T12:18:38;1.75;;;1.65;;
19566;SDS011;9930;49.240;8.548;2023-05-07T12:21:05;1.52;;;1.40;;
19566;SDS011;9930;49.240;8.548;2023-05-07T12:23:36;1.63;;;1.52;;
19566;SDS011;9930;49.240;8.548;2023-05-07T12:26:12;1.60;;;1.50;;
19566;SDS011;9930;49.240;8.548;2023-05-07T12:28:38;1.92;;;1.40;;
19566;SDS011;9930;49.240;8.548;2023-05-07T12:31:05;1.92;;;1.70;;
19566;SDS011;9930;49.240;8.548;2023-05-07T12:33:39;1.80;;;1.67;;
19566;SDS011;9930;49.240;8.548;2023-05-07T12:36:07;2.30;;;1.73;;
19566;SDS011;9930;49.240;8.548;2023-05-07T12:38:35;1.48;;;1.38;;
19566;SDS011;9930;49.240;8.548;2023-05-07T12:41:06;1.60;;;1.50;;
19566;SDS011;9930;49.240;8.548;2023-05-07T12:43:42;1.45;;;1.40;;
19566;SDS011;9930;49.240;8.548;2023-05-07T12:46:14;1.88;;;1.60;;
19566;SDS011;9930;49.240;8.548;2023-05-07T12:48:45;1.60;;;1.50;;
19566;SDS011;9930;49.240;8.548;2023-05-07T12:51:21;1.60;;;1.50;;
19566;SDS011;9930;49.240;8.548;2023-05-07T12:53:52;1.88;;;1.70;;
19566;SDS011;9930;49.240;8.548;2023-05-07T12:56:23;1.60;;;1.50;;
19566;SDS011;9930;49.240;8.548;2023-05-07T12:58:49;1.60;;;1.50;;
19566;SDS011;9930;49.240;8.548;2023-05-07T13:01:15;1.42;;;1.30;;
19566;SDS011;9930;49.240;8.548;2023-05-07T13:03:47;1.67;;;1.58;;
19566;SDS011;9930;49.240;8.548;2023-05-07T13:06:18;1.65;;;1.55;;
19566;SDS011;9930;49.240;8.548;2023-05-07T13:08:44;1.45;;;1.35;;
19566;SDS011;9930;49.240;8.548;2023-05-07T13:11:12;1.38;;;1.38;;
19566;SDS011;9930;49.240;8.548;2023-05-07T13:13:39;1.92;;;1.48;;
19566;SDS011;9930;49.240;8.548;2023-05-07T13:16:06;3.63;;;2.15;;
19566;SDS011;9930;49.240;8.548;2023-05-07T13:18:35;2.22;;;1.90;;
19566;SDS011;9930;49.240;8.548;2023-05-07T13:21:03;1.80;;;1.70;;
19566;SDS011;9930;49.240;8.548;2023-05-07T13:23:32;1.83;;;1.70;;
19566;SDS011;9930;49.240;8.548;2023-05-07T13:26:03;1.58;;;1.48;;
19566;SDS011;9930;49.240;8.548;2023-05-07T13:28:30;1.70;;;1.58;;
19566;SDS011;9930;49.240;8.548;2023-05-07T13:30:55;1.50;;;1.40;;
19566;SDS011;9930;49.240;8.548;2023-05-07T13:33:21;1.70;;;1.58;;
19566;SDS011;9930;49.240;8.548;2023-05-07T13:35:47;1.60;;;1.50;;
19566;SDS011;9930;49.240;8.548;2023-05-07T13:38:15;1.70;;;1.60;;
19566;SDS011;9930;49.240;8.548;2023-05-07T13:40:41;1.58;;;1.48;;
19566;SDS011;9930;49.240;8.548;2023-05-07T13:43:06;1.60;;;1.50;;
19566;SDS011;9930;49.240;8.548;2023-05-07T13:45:33;1.60;;;1.50;;
19566;SDS011;9930;49.240;8.548;2023-05-07T13:47:58;1.60;;;1.50;;
19566;SDS011;9930;49.240;8.548;2023-05-07T13:50:25;1.92;;;1.25;;
19566;SDS011;9930;49.240;8.548;2023-05-07T13:52:56;2.03;;;1.80;;
19566;SDS011;9930;49.240;8.548;2023-05-07T13:55:28;2.10;;;1.83;;
19566;SDS011;9930;49.240;8.548;2023-05-07T13:57:57;1.65;;;1.55;;
19566;SDS011;9930;49.240;8.548;2023-05-07T14:00:25;1.60;;;1.50;;
19566;SDS011;9930;49.240;8.548;2023-05-07T14:02:53;4.18;;;1.92;;
19566;SDS011;9930;49.240;8.548;2023-05-07T14:05:20;2.55;;;1.50;;
19566;SDS011;9930;49.240;8.548;2023-05-07T14:07:48;1.73;;;1.25;;
19566;SDS011;9930;49.240;8.548;2023-05-07T14:10:16;1.45;;;1.30;;
19566;SDS011;9930;49.240;8.548;2023-05-07T14:12:46;1.83;;;1.35;;
19566;SDS011;9930;49.240;8.548;2023-05-07T14:15:14;2.03;;;1.38;;
19566;SDS011;9930;49.240;8.548;2023-05-07T14:17:41;2.00;;;1.35;;
19566;SDS011;9930;49.240;8.548;2023-05-07T14:20:08;1.30;;;1.20;;
19566;SDS011;9930;49.240;8.548;2023-05-07T14:22:36;1.50;;;1.40;;
19566;SDS011;9930;49.240;8.548;2023-05-07T14:25:06;1.30;;;1.20;;
19566;SDS011;9930;49.240;8.548;2023-05-07T14:27:36;1.40;;;1.30;;
19566;SDS011;9930;49.240;8.548;2023-05-07T14:30:07;1.60;;;1.10;;
19566;SDS011;9930;49.240;8.548;2023-05-07T14:32:33;1.65;;;1.40;;
19566;SDS011;9930;49.240;8.548;2023-05-07T14:35:01;1.50;;;1.20;;
19566;SDS011;9930;49.240;8.548;2023-05-07T14:37:26;1.75;;;1.10;;
19566;SDS011;9930;49.240;8.548;2023-05-07T14:39:53;2.10;;;1.08;;
19566;SDS011;9930;49.240;8.548;2023-05-07T14:42:18;1.30;;;1.00;;
19566;SDS011;9930;49.240;8.548;2023-05-07T14:44:45;1.10;;;1.00;;
19566;SDS011;9930;49.240;8.548;2023-05-07T14:47:13;2.15;;;1.40;;
19566;SDS011;9930;49.240;8.548;2023-05-07T14:49:43;1.77;;;1.15;;
19566;SDS011;9930;49.240;8.548;2023-05-07T14:52:11;1.00;;;0.90;;
19566;SDS011;9930;49.240;8.548;2023-05-07T14:54:40;1.33;;;0.90;;
19566;SDS011;9930;49.240;8.548;2023-05-07T14:57:06;1.33;;;1.08;;
19566;SDS011;9930;49.240;8.548;2023-05-07T14:59:37;1.77;;;0.80;;
19566;SDS011;9930;49.240;8.548;2023-05-07T15:02:06;2.22;;;0.90;;
19566;SDS011;9930;49.240;8.548;2023-05-07T15:04:37;1.30;;;0.90;;
19566;SDS011;9930;49.240;8.548;2023-05-07T15:07:11;1.10;;;0.85;;
19566;SDS011;9930;49.240;8.548;2023-05-07T15:09:40;1.17;;;0.93;;
19566;SDS011;9930;49.240;8.548;2023-05-07T15:12:06;1.90;;;1.35;;
19566;SDS011;9930;49.240;8.548;2023-05-07T15:14:35;1.25;;;1.00;;
19566;SDS011;9930;49.240;8.548;2023-05-07T15:17:03;3.35;;;1.05;;
19566;SDS011;9930;49.240;8.548;2023-05-07T15:19:29;1.00;;;1.00;;
19566;SDS011;9930;49.240;8.548;2023-05-07T15:21:58;1.60;;;1.00;;
19566;SDS011;9930;49.240;8.548;2023-05-07T15:24:30;1.38;;;1.10;;
19566;SDS011;9930;49.240;8.548;2023-05-07T15:26:56;1.35;;;1.17;;
19566;SDS011;9930;49.240;8.548;2023-05-07T15:29:25;1.30;;;1.20;;
19566;SDS011;9930;49.240;8.548;2023-05-07T15:31:51;1.42;;;1.27;;
19566;SDS011;9930;49.240;8.548;2023-05-07T15:34:20;1.38;;;1.27;;
19566;SDS011;9930;49.240;8.548;2023-05-07T15:36:47;1.30;;;1.20;;